Crane Lake, Minnesota
Current Conditions -  °F | °C
As of 6:11 AM on Monday 24 Nov 2014 (Local Time) from KCDD Reporting Station
Overcast Overcast  
Wind Chill: 17°   Ceiling: 1100
Heat Index: 27°   Visibility: 7mi
Dew Point: 25°   Wind: 10mph
Humidity: 93%   Direction: 340°NNW
Pressure: 29.35"   Gusts: 24mph
Location:  48.27°N, 92.49°W
Report Text: KCDD 241211Z AUTO 34009G21KT 7SM BKN011 OVC018 M03/M04 A2935 RMK AO2
Loading
Personal Weather Stations






























Interactive Weather Map New forecast layout! Learn more

10-Day Weather Forecast

Advertisements
Track Severe Weather on mobile